Time,TemperatureF,DewpointF,PressureIn,WindDirection,WindDirectionDegrees,WindSpeedMPH,WindSpeedGustMPH,Humidity,HourlyPrecipIn,Conditions,Clouds,dailyrainin,SoftwareType,DateUTC
2013-01-30 00:00:00,58.5,55.9,29.91,NNE,19,0.0,11.0,91,0.00,,,0.00,Wunderground v.1.15,2013-01-30 05:00:00,
2013-01-30 00:05:00,58.2,55.3,29.91,NNE,19,0.0,11.0,90,0.00,,,0.01,Wunderground v.1.15,2013-01-30 05:05:00,
2013-01-30 00:15:00,58.0,55.4,29.91,NNE,19,0.0,11.0,91,0.00,,,0.01,Wunderground v.1.15,2013-01-30 05:15:00,
2013-01-30 00:20:00,57.8,55.2,29.91,NNE,19,0.0,11.0,91,0.05,,,0.02,Wunderground v.1.15,2013-01-30 05:20:00,
2013-01-30 00:25:00,57.8,55.8,29.90,NNE,19,0.0,11.0,93,0.07,,,0.03,Wunderground v.1.15,2013-01-30 05:25:00,
2013-01-30 00:30:00,58.1,56.1,29.90,NNE,19,0.0,11.0,93,0.07,,,0.03,Wunderground v.1.15,2013-01-30 05:30:00,
2013-01-30 00:35:00,58.2,56.2,29.90,NNE,19,0.0,11.0,93,0.32,,,0.04,Wunderground v.1.15,2013-01-30 05:35:00,
2013-01-30 00:40:00,58.0,56.0,29.90,NNE,19,0.0,11.0,93,0.13,,,0.06,Wunderground v.1.15,2013-01-30 05:40:00,
2013-01-30 00:45:00,57.8,55.8,29.90,NNE,19,0.0,11.0,93,0.14,,,0.07,Wunderground v.1.15,2013-01-30 05:45:00,
2013-01-30 00:50:00,57.8,55.8,29.90,NNE,19,1.0,11.0,93,0.08,,,0.08,Wunderground v.1.15,2013-01-30 05:50:00,
2013-01-30 00:55:00,57.6,55.9,29.89,NNE,19,1.0,11.0,94,0.16,,,0.09,Wunderground v.1.15,2013-01-30 05:55:00,
2013-01-30 01:00:00,57.5,55.8,29.89,NNE,32,1.0,1.0,94,0.07,,,0.09,Wunderground v.1.15,2013-01-30 06:00:00,
2013-01-30 01:05:00,57.5,55.8,29.88,NNE,32,0.0,11.0,94,0.04,,,0.09,Wunderground v.1.15,2013-01-30 06:05:00,
2013-01-30 01:10:00,58.1,56.7,29.87,South,182,0.0,11.0,95,0.00,,,0.09,Wunderground v.1.15,2013-01-30 06:10:00,
2013-01-30 01:15:00,58.6,57.2,29.87,South,182,0.0,11.0,95,0.00,,,0.09,Wunderground v.1.15,2013-01-30 06:15:00,
2013-01-30 01:20:00,58.9,57.5,29.87,South,188,0.0,11.0,95,0.00,,,0.09,Wunderground v.1.15,2013-01-30 06:20:00,
2013-01-30 01:25:00,59.1,57.7,29.87,South,184,1.0,11.0,95,0.00,,,0.09,Wunderground v.1.15,2013-01-30 06:25:00,
2013-01-30 01:30:00,59.2,57.8,29.87,South,184,0.0,11.0,95,0.00,,,0.09,Wunderground v.1.15,2013-01-30 06:30:00,
2013-01-30 01:35:00,59.3,57.6,29.87,South,184,0.0,11.0,94,0.00,,,0.09,Wunderground v.1.15,2013-01-30 06:35:00,
2013-01-30 01:45:00,58.8,57.1,29.86,South,184,0.0,11.0,94,0.00,,,0.09,Wunderground v.1.15,2013-01-30 06:45:00,
2013-01-30 01:50:00,58.7,57.0,29.86,South,183,0.0,11.0,94,0.00,,,0.09,Wunderground v.1.15,2013-01-30 06:50:00,
2013-01-30 01:55:00,58.6,56.9,29.86,South,184,0.0,11.0,94,0.00,,,0.09,Wunderground v.1.15,2013-01-30 06:55:00,
2013-01-30 02:00:00,58.5,56.8,29.86,SSW,194,0.0,11.0,94,0.00,,,0.09,Wunderground v.1.15,2013-01-30 07:00:00,
2013-01-30 02:05:00,58.2,56.5,29.85,SSW,194,0.0,11.0,94,0.00,,,0.09,Wunderground v.1.15,2013-01-30 07:05:00,
2013-01-30 02:10:00,58.2,56.5,29.85,SSW,194,0.0,11.0,94,0.00,,,0.09,Wunderground v.1.15,2013-01-30 07:10:00,
2013-01-30 02:15:00,58.2,56.5,29.85,SSW,194,0.0,11.0,94,0.00,,,0.09,Wunderground v.1.15,2013-01-30 07:15:00,
2013-01-30 02:25:00,58.1,56.4,29.85,SSW,194,0.0,11.0,94,0.00,,,0.09,Wunderground v.1.15,2013-01-30 07:25:00,
2013-01-30 02:30:00,58.0,56.3,29.85,NE,36,0.0,11.0,94,0.00,,,0.09,Wunderground v.1.15,2013-01-30 07:30:00,
2013-01-30 02:35:00,58.1,56.7,29.84,NE,36,0.0,11.0,95,0.00,,,0.09,Wunderground v.1.15,2013-01-30 07:35:00,
2013-01-30 02:40:00,58.2,56.8,29.84,ENE,59,0.0,11.0,95,0.00,,,0.09,Wunderground v.1.15,2013-01-30 07:40:00,
2013-01-30 02:45:00,58.3,56.9,29.85,NNW,336,0.0,11.0,95,0.00,,,0.09,Wunderground v.1.15,2013-01-30 07:45:00,
2013-01-30 02:50:00,58.6,57.2,29.84,NNE,13,1.0,1.0,95,0.00,,,0.09,Wunderground v.1.15,2013-01-30 07:50:00,
2013-01-30 03:00:00,58.6,57.2,29.83,NNE,13,0.0,11.0,95,0.00,,,0.09,Wunderground v.1.15,2013-01-30 08:00:00,
2013-01-30 03:05:00,58.6,57.2,29.83,NNE,13,0.0,11.0,95,0.00,,,0.09,Wunderground v.1.15,2013-01-30 08:05:00,
2013-01-30 03:10:00,58.7,57.3,29.83,NNE,13,0.0,11.0,95,0.00,,,0.09,Wunderground v.1.15,2013-01-30 08:10:00,
2013-01-30 03:15:00,58.8,57.4,29.83,NNE,13,0.0,11.0,95,0.00,,,0.09,Wunderground v.1.15,2013-01-30 08:15:00,
2013-01-30 03:20:00,58.9,57.5,29.82,NNE,13,0.0,11.0,95,0.00,,,0.09,Wunderground v.1.15,2013-01-30 08:20:00,
2013-01-30 03:30:00,58.8,57.4,29.82,NNE,13,0.0,11.0,95,0.00,,,0.09,Wunderground v.1.15,2013-01-30 08:30:00,
2013-01-30 03:35:00,58.6,57.2,29.82,NNE,32,0.0,11.0,95,0.00,,,0.09,Wunderground v.1.15,2013-01-30 08:35:00,
2013-01-30 03:40:00,58.7,57.3,29.81,NNE,32,0.0,11.0,95,0.00,,,0.09,Wunderground v.1.15,2013-01-30 08:40:00,
2013-01-30 03:45:00,58.6,57.2,29.80,NNE,32,0.0,11.0,95,0.00,,,0.09,Wunderground v.1.15,2013-01-30 08:45:00,
2013-01-30 03:50:00,58.8,57.4,29.80,South,191,0.0,11.0,95,0.00,,,0.09,Wunderground v.1.15,2013-01-30 08:50:00,
2013-01-30 03:55:00,59.3,58.2,29.81,NNW,330,0.0,11.0,96,0.00,,,0.09,Wunderground v.1.15,2013-01-30 08:55:00,
2013-01-30 04:05:00,59.3,57.9,29.81,West,277,0.0,11.0,95,0.00,,,0.09,Wunderground v.1.15,2013-01-30 09:05:00,
2013-01-30 04:10:00,59.3,57.9,29.81,NW,319,0.0,11.0,95,0.00,,,0.09,Wunderground v.1.15,2013-01-30 09:10:00,
2013-01-30 04:15:00,59.4,58.0,29.81,North,9,1.0,11.0,95,0.00,,,0.09,Wunderground v.1.15,2013-01-30 09:15:00,
2013-01-30 04:20:00,59.5,58.1,29.80,North,9,1.0,1.0,95,0.00,,,0.09,Wunderground v.1.15,2013-01-30 09:20:00,
2013-01-30 04:25:00,59.6,58.2,29.80,North,9,0.0,11.0,95,0.00,,,0.09,Wunderground v.1.15,2013-01-30 09:25:00,
2013-01-30 04:35:00,59.8,58.4,29.80,North,9,0.0,11.0,95,0.00,,,0.09,Wunderground v.1.15,2013-01-30 09:35:00,
2013-01-30 04:40:00,59.5,58.1,29.80,North,9,0.0,11.0,95,0.00,,,0.09,Wunderground v.1.15,2013-01-30 09:40:00,
2013-01-30 04:45:00,59.5,58.1,29.79,North,355,0.0,11.0,95,0.00,,,0.09,Wunderground v.1.15,2013-01-30 09:45:00,
2013-01-30 04:50:00,59.8,58.4,29.78,North,355,0.0,11.0,95,0.00,,,0.09,Wunderground v.1.15,2013-01-30 09:50:00,
2013-01-30 04:55:00,59.9,58.5,29.78,NNE,14,0.0,11.0,95,0.00,,,0.09,Wunderground v.1.15,2013-01-30 09:55:00,
2013-01-30 05:00:00,60.1,58.7,29.78,SW,223,0.0,11.0,95,0.00,,,0.09,Wunderground v.1.15,2013-01-30 10:00:00,
2013-01-30 05:05:00,60.1,58.7,29.77,SW,227,0.0,11.0,95,0.00,,,0.09,Wunderground v.1.15,2013-01-30 10:05:00,
2013-01-30 05:10:00,60.1,58.7,29.77,WSW,240,0.0,11.0,95,0.00,,,0.09,Wunderground v.1.15,2013-01-30 10:10:00,
2013-01-30 05:15:00,60.2,58.8,29.77,SSW,210,0.0,11.0,95,0.00,,,0.09,Wunderground v.1.15,2013-01-30 10:15:00,
2013-01-30 05:20:00,60.2,58.8,29.77,SSW,209,0.0,11.0,95,0.00,,,0.09,Wunderground v.1.15,2013-01-30 10:20:00,
2013-01-30 05:25:00,60.1,58.7,29.76,WNW,298,0.0,11.0,95,0.00,,,0.09,Wunderground v.1.15,2013-01-30 10:25:00,
2013-01-30 05:30:00,60.2,58.8,29.77,West,278,0.0,11.0,95,0.00,,,0.09,Wunderground v.1.15,2013-01-30 10:30:00,
2013-01-30 05:35:00,60.2,58.8,29.76,SW,228,1.0,11.0,95,0.00,,,0.09,Wunderground v.1.15,2013-01-30 10:35:00,
2013-01-30 05:40:00,60.3,58.9,29.76,WNW,286,1.0,1.0,95,0.00,,,0.10,Wunderground v.1.15,2013-01-30 10:40:00,
2013-01-30 05:45:00,60.4,59.0,29.76,NW,306,1.0,11.0,95,0.00,,,0.10,Wunderground v.1.15,2013-01-30 10:45:00,
2013-01-30 05:50:00,60.5,59.1,29.75,SSW,211,1.0,1.0,95,0.00,,,0.10,Wunderground v.1.15,2013-01-30 10:50:00,
2013-01-30 05:55:00,60.5,59.1,29.75,SW,227,1.0,5.0,95,0.00,,,0.10,Wunderground v.1.15,2013-01-30 10:55:00,
2013-01-30 06:00:00,60.6,59.2,29.75,SW,224,1.0,1.0,95,0.00,,,0.11,Wunderground v.1.15,2013-01-30 11:00:00,
2013-01-30 06:10:00,60.6,59.2,29.75,SW,225,1.0,1.0,95,0.07,,,0.12,Wunderground v.1.15,2013-01-30 11:10:00,
2013-01-30 06:20:00,60.5,59.1,29.74,SSW,208,0.0,11.0,95,0.04,,,0.12,Wunderground v.1.15,2013-01-30 11:20:00,
2013-01-30 06:25:00,60.5,59.1,29.74,SW,236,1.0,11.0,95,0.00,,,0.13,Wunderground v.1.15,2013-01-30 11:25:00,
2013-01-30 06:30:00,60.5,59.1,29.74,SW,220,1.0,1.0,95,0.00,,,0.13,Wunderground v.1.15,2013-01-30 11:30:00,
2013-01-30 06:35:00,60.5,59.1,29.73,SW,222,1.0,11.0,95,0.00,,,0.13,Wunderground v.1.15,2013-01-30 11:35:00,
2013-01-30 06:40:00,60.5,59.1,29.74,West,267,0.0,11.0,95,0.00,,,0.13,Wunderground v.1.15,2013-01-30 11:40:00,
2013-01-30 06:45:00,60.5,59.1,29.73,SSW,211,0.0,11.0,95,0.00,,,0.14,Wunderground v.1.15,2013-01-30 11:45:00,
2013-01-30 06:50:00,60.5,59.1,29.73,SW,217,0.0,11.0,95,0.00,,,0.14,Wunderground v.1.15,2013-01-30 11:50:00,
2013-01-30 06:55:00,60.6,59.2,29.73,WSW,238,1.0,11.0,95,0.05,,,0.15,Wunderground v.1.15,2013-01-30 11:55:00,
2013-01-30 07:00:00,60.7,59.3,29.73,SW,217,1.0,1.0,95,0.13,,,0.16,Wunderground v.1.15,2013-01-30 12:00:00,
2013-01-30 07:10:00,60.7,59.3,29.73,WSW,240,1.0,1.0,95,0.04,,,0.16,Wunderground v.1.15,2013-01-30 12:10:00,
2013-01-30 07:15:00,60.8,59.4,29.73,WSW,253,0.0,11.0,95,0.00,,,0.16,Wunderground v.1.15,2013-01-30 12:15:00,
2013-01-30 07:20:00,60.8,59.4,29.73,WSW,246,0.0,11.0,95,0.00,,,0.16,Wunderground v.1.15,2013-01-30 12:20:00,
2013-01-30 07:25:00,60.9,59.5,29.72,SSW,213,0.0,11.0,95,0.00,,,0.16,Wunderground v.1.15,2013-01-30 12:25:00,
2013-01-30 07:30:00,60.9,59.5,29.72,SW,217,1.0,1.0,95,0.00,,,0.16,Wunderground v.1.15,2013-01-30 12:30:00,
2013-01-30 07:35:00,61.0,59.6,29.72,SW,220,1.0,11.0,95,0.00,,,0.17,Wunderground v.1.15,2013-01-30 12:35:00,
2013-01-30 07:40:00,61.0,59.6,29.71,SW,234,0.0,11.0,95,0.00,,,0.17,Wunderground v.1.15,2013-01-30 12:40:00,
2013-01-30 07:50:00,61.0,59.6,29.72,West,271,0.0,11.0,95,0.00,,,0.18,Wunderground v.1.15,2013-01-30 12:50:00,
2013-01-30 07:55:00,61.0,59.6,29.72,SW,236,0.0,11.0,95,0.13,,,0.19,Wunderground v.1.15,2013-01-30 12:55:00,
2013-01-30 08:01:00,61.1,60.0,29.71,SW,231,0.0,0.0,96,0.06,,,0.19,Wunderground v.1.15,2013-01-30 13:01:00,
2013-01-30 08:10:00,61.3,60.2,29.70,SW,234,1.0,1.0,96,0.05,,,0.20,Wunderground v.1.15,2013-01-30 13:10:00,
2013-01-30 08:15:00,61.4,60.0,29.70,SW,229,1.0,1.0,95,0.04,,,0.20,Wunderground v.1.15,2013-01-30 13:15:00,
2013-01-30 08:25:00,61.5,60.1,29.70,SSW,201,1.0,5.0,95,0.00,,,0.20,Wunderground v.1.15,2013-01-30 13:25:00,
2013-01-30 08:30:00,61.7,60.3,29.70,West,259,1.0,1.0,95,0.00,,,0.20,Wunderground v.1.15,2013-01-30 13:30:00,
2013-01-30 08:35:00,61.8,60.4,29.69,West,259,1.0,1.0,95,0.00,,,0.20,Wunderground v.1.15,2013-01-30 13:35:00,
2013-01-30 08:40:00,61.8,60.4,29.69,SW,219,1.0,6.0,95,0.00,,,0.20,Wunderground v.1.15,2013-01-30 13:40:00,
2013-01-30 08:45:00,62.0,60.3,29.69,SW,218,2.0,6.0,94,0.00,,,0.20,Wunderground v.1.15,2013-01-30 13:45:00,
2013-01-30 08:55:00,62.2,60.5,29.68,SSW,202,0.0,1.0,94,0.00,,,0.20,Wunderground v.1.15,2013-01-30 13:55:00,
2013-01-30 09:00:00,62.2,60.5,29.69,SW,215,0.0,0.0,94,0.00,,,0.21,Wunderground v.1.15,2013-01-30 14:00:00,
2013-01-30 09:10:00,62.3,60.6,29.69,WNW,294,0.0,0.0,94,0.05,,,0.22,Wunderground v.1.15,2013-01-30 14:10:00,
2013-01-30 09:15:00,62.3,60.6,29.69,West,272,0.0,0.0,94,0.05,,,0.22,Wunderground v.1.15,2013-01-30 14:15:00,
2013-01-30 09:20:00,62.3,60.6,29.69,SW,234,0.0,0.0,94,0.05,,,0.22,Wunderground v.1.15,2013-01-30 14:20:00,
2013-01-30 09:25:00,62.3,60.6,29.69,WSW,256,0.0,0.0,94,0.00,,,0.22,Wunderground v.1.15,2013-01-30 14:25:00,
2013-01-30 09:35:00,62.3,60.6,29.69,WSW,254,0.0,0.0,94,0.00,,,0.23,Wunderground v.1.15,2013-01-30 14:35:00,
2013-01-30 09:40:00,62.3,60.6,29.68,NW,313,1.0,1.0,94,0.00,,,0.23,Wunderground v.1.15,2013-01-30 14:40:00,
2013-01-30 09:45:00,62.4,60.7,29.68,West,281,1.0,1.0,94,0.00,,,0.23,Wunderground v.1.15,2013-01-30 14:45:00,
2013-01-30 09:50:00,62.4,60.7,29.68,WSW,256,0.0,0.0,94,0.00,,,0.24,Wunderground v.1.15,2013-01-30 14:50:00,
2013-01-30 09:55:00,62.4,60.7,29.68,WSW,251,0.0,0.0,94,0.00,,,0.24,Wunderground v.1.15,2013-01-30 14:55:00,
2013-01-30 10:00:00,62.5,60.7,29.68,WNW,298,1.0,1.0,94,0.00,,,0.24,Wunderground v.1.15,2013-01-30 15:00:00,
2013-01-30 10:10:00,62.7,60.9,29.67,WSW,258,1.0,1.0,94,0.00,,,0.24,Wunderground v.1.15,2013-01-30 15:10:00,
2013-01-30 10:15:00,62.7,60.6,29.67,West,269,2.0,2.0,93,0.00,,,0.24,Wunderground v.1.15,2013-01-30 15:15:00,
2013-01-30 10:25:00,62.8,60.7,29.66,WSW,243,1.0,7.0,93,0.00,,,0.24,Wunderground v.1.15,2013-01-30 15:25:00,
2013-01-30 10:30:00,62.8,60.7,29.66,WSW,257,1.0,1.0,93,0.00,,,0.24,Wunderground v.1.15,2013-01-30 15:30:00,
2013-01-30 10:40:00,62.9,60.5,29.65,West,280,1.0,1.0,92,0.00,,,0.24,Wunderground v.1.15,2013-01-30 15:40:00,
2013-01-30 10:45:00,63.1,60.7,29.65,WNW,301,3.0,3.0,92,0.00,,,0.24,Wunderground v.1.15,2013-01-30 15:45:00,
2013-01-30 10:50:00,63.1,60.7,29.65,West,277,1.0,1.0,92,0.00,,,0.24,Wunderground v.1.15,2013-01-30 15:50:00,
2013-01-30 10:55:00,63.2,60.8,29.64,SW,234,0.0,1.0,92,0.00,,,0.24,Wunderground v.1.15,2013-01-30 15:55:00,
2013-01-30 11:00:00,63.2,60.5,29.64,SW,223,0.0,0.0,91,0.00,,,0.24,Wunderground v.1.15,2013-01-30 16:00:00,
2013-01-30 11:10:00,63.3,60.6,29.63,West,259,0.0,0.0,91,0.00,,,0.24,Wunderground v.1.15,2013-01-30 16:10:00,
2013-01-30 11:20:00,63.4,60.7,29.63,SSW,212,0.0,0.0,91,0.00,,,0.24,Wunderground v.1.15,2013-01-30 16:20:00,
2013-01-30 11:25:00,63.4,60.7,29.63,SW,217,0.0,0.0,91,0.00,,,0.24,Wunderground v.1.15,2013-01-30 16:25:00,
2013-01-30 11:30:00,63.6,60.9,29.62,NW,315,0.0,3.0,91,0.00,,,0.24,Wunderground v.1.15,2013-01-30 16:30:00,
2013-01-30 11:35:00,63.9,60.9,29.62,West,275,2.0,3.0,90,0.00,,,0.24,Wunderground v.1.15,2013-01-30 16:35:00,
2013-01-30 11:45:00,64.5,60.9,29.61,WNW,294,2.0,3.0,88,0.00,,,0.24,Wunderground v.1.15,2013-01-30 16:45:00,
2013-01-30 11:50:00,64.9,60.9,29.61,WSW,246,3.0,3.0,87,0.00,,,0.24,Wunderground v.1.15,2013-01-30 16:50:00,
2013-01-30 11:55:00,65.0,61.0,29.60,SSW,196,3.0,11.0,87,0.00,,,0.24,Wunderground v.1.15,2013-01-30 16:55:00,
2013-01-30 12:00:00,65.2,60.9,29.60,SW,234,2.0,2.0,86,0.00,,,0.24,Wunderground v.1.15,2013-01-30 17:00:00,
2013-01-30 12:10:00,65.3,61.0,29.59,NNW,330,4.0,5.0,86,0.00,,,0.24,Wunderground v.1.15,2013-01-30 17:10:00,
2013-01-30 12:20:00,65.6,61.0,29.59,SSW,211,7.0,20.0,85,0.00,,,0.24,Wunderground v.1.15,2013-01-30 17:20:00,
2013-01-30 12:25:00,65.7,60.7,29.58,SW,232,6.0,20.0,84,0.00,,,0.24,Wunderground v.1.15,2013-01-30 17:25:00,
2013-01-30 12:30:00,65.8,60.8,29.58,SW,223,6.0,7.0,84,0.00,,,0.24,Wunderground v.1.15,2013-01-30 17:30:00,
2013-01-30 12:40:00,65.8,60.8,29.57,West,276,5.0,5.0,84,0.00,,,0.24,Wunderground v.1.15,2013-01-30 17:40:00,
2013-01-30 12:45:00,65.8,60.8,29.56,SW,219,4.0,6.0,84,0.00,,,0.24,Wunderground v.1.15,2013-01-30 17:45:00,
2013-01-30 12:55:00,65.8,60.8,29.56,SW,225,7.0,11.0,84,0.00,,,0.24,Wunderground v.1.15,2013-01-30 17:55:00,
2013-01-30 13:00:00,65.7,61.1,29.56,West,276,6.0,7.0,85,0.00,,,0.24,Wunderground v.1.15,2013-01-30 18:00:00,
2013-01-30 13:10:00,65.6,61.0,29.54,West,267,5.0,5.0,85,0.00,,,0.24,Wunderground v.1.15,2013-01-30 18:10:00,
2013-01-30 13:15:00,65.5,60.9,29.54,WSW,246,5.0,5.0,85,0.00,,,0.24,Wunderground v.1.15,2013-01-30 18:15:00,
2013-01-30 13:20:00,65.4,61.1,29.53,SSW,202,5.0,5.0,86,0.00,,,0.24,Wunderground v.1.15,2013-01-30 18:20:00,
2013-01-30 13:30:00,65.2,60.9,29.52,SW,224,2.0,6.0,86,0.00,,,0.25,Wunderground v.1.15,2013-01-30 18:30:00,
2013-01-30 13:35:00,65.0,61.0,29.52,West,263,3.0,6.0,87,0.00,,,0.25,Wunderground v.1.15,2013-01-30 18:35:00,
2013-01-30 13:40:00,65.0,61.0,29.51,SW,230,4.0,4.0,87,0.00,,,0.25,Wunderground v.1.15,2013-01-30 18:40:00,
2013-01-30 13:45:00,64.9,60.9,29.51,WNW,299,3.0,7.0,87,0.00,,,0.25,Wunderground v.1.15,2013-01-30 18:45:00,
2013-01-30 13:50:00,64.9,60.9,29.51,SW,234,1.0,5.0,87,0.00,,,0.25,Wunderground v.1.15,2013-01-30 18:50:00,
2013-01-30 14:01:00,65.2,61.2,29.50,SSW,213,4.0,7.0,87,0.00,,,0.25,Wunderground v.1.15,2013-01-30 19:01:00,
2013-01-30 14:10:00,65.3,61.3,29.50,SW,227,3.0,5.0,87,0.00,,,0.25,Wunderground v.1.15,2013-01-30 19:10:00,
2013-01-30 14:20:00,65.1,61.5,29.49,SSW,213,3.0,6.0,88,0.00,,,0.26,Wunderground v.1.15,2013-01-30 19:20:00,
2013-01-30 14:25:00,64.8,61.2,29.49,WSW,240,3.0,6.0,88,0.00,,,0.26,Wunderground v.1.15,2013-01-30 19:25:00,
2013-01-30 14:35:00,64.6,61.6,29.48,West,262,3.0,6.0,90,0.00,,,0.26,Wunderground v.1.15,2013-01-30 19:35:00,
2013-01-30 14:40:00,64.5,61.5,29.48,SW,218,3.0,3.0,90,0.00,,,0.26,Wunderground v.1.15,2013-01-30 19:40:00,
2013-01-30 14:45:00,64.5,61.5,29.48,SSW,212,2.0,6.0,90,0.00,,,0.26,Wunderground v.1.15,2013-01-30 19:45:00,
2013-01-30 14:50:00,64.5,61.5,29.47,SW,236,2.0,3.0,90,0.00,,,0.26,Wunderground v.1.15,2013-01-30 19:50:00,
2013-01-30 14:55:00,64.5,61.2,29.46,SW,219,3.0,5.0,89,0.00,,,0.26,Wunderground v.1.15,2013-01-30 19:55:00,
2013-01-30 15:01:00,64.6,61.6,29.46,SW,215,4.0,8.0,90,0.00,,,0.26,Wunderground v.1.15,2013-01-30 20:01:00,
2013-01-30 15:10:00,64.6,61.6,29.46,SW,234,5.0,5.0,90,0.00,,,0.26,Wunderground v.1.15,2013-01-30 20:10:00,
2013-01-30 15:15:00,64.6,61.6,29.45,WSW,246,6.0,6.0,90,0.00,,,0.26,Wunderground v.1.15,2013-01-30 20:15:00,
2013-01-30 15:20:00,64.5,61.5,29.45,SW,219,6.0,6.0,90,0.00,,,0.27,Wunderground v.1.15,2013-01-30 20:20:00,
2013-01-30 15:25:00,64.4,61.4,29.44,SSW,205,6.0,6.0,90,0.00,,,0.27,Wunderground v.1.15,2013-01-30 20:25:00,
2013-01-30 15:30:00,64.4,61.7,29.45,SSW,202,6.0,7.0,91,0.00,,,0.27,Wunderground v.1.15,2013-01-30 20:30:00,
2013-01-30 15:35:00,64.3,61.6,29.45,SW,218,5.0,7.0,91,0.00,,,0.27,Wunderground v.1.15,2013-01-30 20:35:00,
2013-01-30 15:45:00,64.1,61.4,29.43,SSW,208,4.0,6.0,91,0.00,,,0.27,Wunderground v.1.15,2013-01-30 20:45:00,
2013-01-30 15:50:00,64.1,61.4,29.43,SW,215,4.0,7.0,91,0.00,,,0.27,Wunderground v.1.15,2013-01-30 20:50:00,
2013-01-30 15:55:00,64.1,61.4,29.43,SW,219,4.0,7.0,91,0.00,,,0.27,Wunderground v.1.15,2013-01-30 20:55:00,
2013-01-30 16:00:00,64.0,61.3,29.42,SSW,209,4.0,6.0,91,0.00,,,0.27,Wunderground v.1.15,2013-01-30 21:00:00,
2013-01-30 16:10:00,64.0,61.3,29.41,South,184,2.0,2.0,91,0.00,,,0.28,Wunderground v.1.15,2013-01-30 21:10:00,
2013-01-30 16:20:00,63.8,61.4,29.41,WSW,245,2.0,5.0,92,0.00,,,0.28,Wunderground v.1.15,2013-01-30 21:20:00,
2013-01-30 16:25:00,63.8,61.4,29.41,SSW,194,4.0,9.0,92,0.05,,,0.29,Wunderground v.1.15,2013-01-30 21:25:00,
2013-01-30 16:30:00,63.8,61.4,29.40,SSW,200,6.0,6.0,92,0.05,,,0.29,Wunderground v.1.15,2013-01-30 21:30:00,
2013-01-30 16:35:00,63.8,61.4,29.40,South,185,6.0,6.0,92,0.04,,,0.29,Wunderground v.1.15,2013-01-30 21:35:00,
2013-01-30 16:40:00,63.8,61.4,29.39,SW,219,5.0,5.0,92,0.04,,,0.30,Wunderground v.1.15,2013-01-30 21:40:00,
2013-01-30 16:45:00,63.8,61.4,29.40,SSW,193,5.0,7.0,92,0.09,,,0.31,Wunderground v.1.15,2013-01-30 21:45:00,
2013-01-30 16:50:00,63.9,61.2,29.39,SSW,211,6.0,8.0,91,0.14,,,0.32,Wunderground v.1.15,2013-01-30 21:50:00,
2013-01-30 16:55:00,64.0,61.3,29.39,SE,142,7.0,8.0,91,0.14,,,0.33,Wunderground v.1.15,2013-01-30 21:55:00,
2013-01-30 17:00:00,63.9,61.2,29.39,SSW,202,6.0,7.0,91,0.08,,,0.34,Wunderground v.1.15,2013-01-30 22:00:00,
2013-01-30 17:10:00,63.8,61.4,29.38,SSW,197,3.0,3.0,92,0.10,,,0.35,Wunderground v.1.15,2013-01-30 22:10:00,
2013-01-30 17:15:00,63.7,61.3,29.39,SSW,209,3.0,3.0,92,0.08,,,0.36,Wunderground v.1.15,2013-01-30 22:15:00,
2013-01-30 17:20:00,63.6,61.2,29.38,SW,223,3.0,5.0,92,0.12,,,0.37,Wunderground v.1.15,2013-01-30 22:20:00,
2013-01-30 17:25:00,63.4,61.0,29.37,SW,225,2.0,5.0,92,0.06,,,0.37,Wunderground v.1.15,2013-01-30 22:25:00,
2013-01-30 17:30:00,63.3,61.2,29.36,South,188,3.0,7.0,93,0.05,,,0.38,Wunderground v.1.15,2013-01-30 22:30:00,
2013-01-30 17:35:00,63.1,61.0,29.36,SW,215,5.0,9.0,93,0.05,,,0.38,Wunderground v.1.15,2013-01-30 22:35:00,
2013-01-30 17:40:00,63.1,61.0,29.34,SSW,196,6.0,10.0,93,0.15,,,0.40,Wunderground v.1.15,2013-01-30 22:40:00,
2013-01-30 17:50:00,62.9,60.8,29.33,SSW,207,5.0,5.0,93,0.08,,,0.42,Wunderground v.1.15,2013-01-30 22:50:00,
2013-01-30 17:55:00,62.7,60.9,29.32,SSW,198,5.0,7.0,94,0.19,,,0.43,Wunderground v.1.15,2013-01-30 22:55:00,
2013-01-30 18:00:00,62.7,60.9,29.32,SW,232,7.0,7.0,94,0.24,,,0.45,Wunderground v.1.15,2013-01-30 23:00:00,
2013-01-30 18:05:00,62.7,60.9,29.36,NNW,344,8.0,8.0,94,0.38,,,0.47,Wunderground v.1.15,2013-01-30 23:05:00,
2013-01-30 18:10:00,62.7,60.9,29.36,NW,316,7.0,20.0,94,3.18,,,0.71,Wunderground v.1.15,2013-01-30 23:10:00,
2013-01-30 18:15:00,62.7,60.9,29.35,NW,310,6.0,20.0,94,1.41,,,0.79,Wunderground v.1.15,2013-01-30 23:15:00,
2013-01-30 18:20:00,62.6,60.8,29.36,WNW,302,5.0,5.0,94,2.57,,,0.87,Wunderground v.1.15,2013-01-30 23:20:00,
2013-01-30 18:30:00,62.1,60.4,29.35,West,273,6.0,20.0,94,0.29,,,0.97,Wunderground v.1.15,2013-01-30 23:30:00,
2013-01-30 18:35:00,62.0,60.3,29.34,West,281,5.0,20.0,94,0.27,,,0.99,Wunderground v.1.15,2013-01-30 23:35:00,
2013-01-30 18:40:00,61.8,60.1,29.35,WNW,299,2.0,2.0,94,0.30,,,1.01,Wunderground v.1.15,2013-01-30 23:40:00,
2013-01-30 18:45:00,61.6,59.9,29.36,West,277,2.0,4.0,94,0.39,,,1.03,Wunderground v.1.15,2013-01-30 23:45:00,
2013-01-30 18:50:00,61.6,60.2,29.35,NNW,327,4.0,4.0,95,0.45,,,1.06,Wunderground v.1.15,2013-01-30 23:50:00,
2013-01-30 19:00:00,61.3,59.9,29.32,West,269,1.0,1.0,95,0.34,,,1.11,Wunderground v.1.15,2013-01-31 00:00:00,
2013-01-30 19:05:00,61.3,59.9,29.33,WSW,238,1.0,4.0,95,0.31,,,1.13,Wunderground v.1.15,2013-01-31 00:05:00,
2013-01-30 19:10:00,61.2,59.8,29.33,West,276,3.0,3.0,95,0.22,,,1.15,Wunderground v.1.15,2013-01-31 00:10:00,
2013-01-30 19:15:00,61.2,59.8,29.33,WNW,299,3.0,20.0,95,0.32,,,1.18,Wunderground v.1.15,2013-01-31 00:15:00,
2013-01-30 19:20:00,61.2,59.8,29.33,WNW,300,1.0,1.0,95,0.25,,,1.20,Wunderground v.1.15,2013-01-31 00:20:00,
2013-01-30 19:25:00,61.1,59.7,29.33,NW,304,0.0,20.0,95,0.18,,,1.22,Wunderground v.1.15,2013-01-31 00:25:00,
2013-01-30 19:35:00,60.9,59.5,29.31,NW,326,0.0,20.0,95,0.13,,,1.25,Wunderground v.1.15,2013-01-31 00:35:00,
2013-01-30 19:40:00,60.8,59.4,29.31,NNW,331,0.0,20.0,95,0.06,,,1.25,Wunderground v.1.15,2013-01-31 00:40:00,
2013-01-30 19:45:00,60.7,59.3,29.32,NW,304,0.0,20.0,95,0.05,,,1.26,Wunderground v.1.15,2013-01-31 00:45:00,
2013-01-30 19:50:00,60.7,59.3,29.34,NW,315,0.0,20.0,95,0.15,,,1.27,Wunderground v.1.15,2013-01-31 00:50:00,
2013-01-30 19:55:00,60.6,59.2,29.34,NW,317,0.0,20.0,95,0.24,,,1.29,Wunderground v.1.15,2013-01-31 00:55:00,
2013-01-30 20:05:00,60.4,59.0,29.32,WSW,238,0.0,20.0,95,0.21,,,1.33,Wunderground v.1.15,2013-01-31 01:05:00,
2013-01-30 20:10:00,60.2,58.8,29.31,WNW,302,0.0,20.0,95,0.10,,,1.33,Wunderground v.1.15,2013-01-31 01:10:00,
2013-01-30 20:15:00,60.2,58.8,29.30,WNW,303,0.0,20.0,95,0.06,,,1.33,Wunderground v.1.15,2013-01-31 01:15:00,
2013-01-30 20:20:00,60.0,58.6,29.30,WNW,294,0.0,20.0,95,0.04,,,1.33,Wunderground v.1.15,2013-01-31 01:20:00,
2013-01-30 20:25:00,60.0,58.6,29.30,WNW,300,0.0,20.0,95,0.00,,,1.34,Wunderground v.1.15,2013-01-31 01:25:00,
2013-01-30 20:30:00,59.9,58.5,29.30,WNW,300,0.0,20.0,95,0.14,,,1.35,Wunderground v.1.15,2013-01-31 01:30:00,
2013-01-30 20:40:00,59.8,58.7,29.30,WNW,300,0.0,20.0,96,0.06,,,1.35,Wunderground v.1.15,2013-01-31 01:40:00,
2013-01-30 20:45:00,59.7,58.6,29.30,NW,304,0.0,20.0,96,0.04,,,1.35,Wunderground v.1.15,2013-01-31 01:45:00,
2013-01-30 20:50:00,59.7,58.6,29.30,WNW,301,0.0,20.0,96,0.00,,,1.36,Wunderground v.1.15,2013-01-31 01:50:00,
2013-01-30 20:55:00,59.6,58.5,29.33,North,360,0.0,20.0,96,0.00,,,1.36,Wunderground v.1.15,2013-01-31 01:55:00,
2013-01-30 21:00:00,58.3,56.0,29.36,North,355,4.0,20.0,92,0.89,,,1.41,Wunderground v.1.15,2013-01-31 02:00:00,
2013-01-30 21:10:00,56.2,53.3,29.35,NNE,33,8.0,8.0,90,0.26,,,1.51,Wunderground v.1.15,2013-01-31 02:10:00,
2013-01-30 21:15:00,55.5,52.9,29.35,NW,326,7.0,20.0,91,0.08,,,1.51,Wunderground v.1.15,2013-01-31 02:15:00,
2013-01-30 21:20:00,54.9,52.3,29.35,NNE,16,7.0,7.0,91,0.07,,,1.52,Wunderground v.1.15,2013-01-31 02:20:00,
2013-01-30 21:25:00,54.5,51.9,29.35,NNE,33,6.0,20.0,91,0.08,,,1.53,Wunderground v.1.15,2013-01-31 02:25:00,
2013-01-30 21:30:00,54.1,51.5,29.32,NE,36,5.0,20.0,91,0.10,,,1.53,Wunderground v.1.15,2013-01-31 02:30:00,
2013-01-30 21:35:00,53.8,51.5,29.35,NNE,15,5.0,20.0,92,0.16,,,1.55,Wunderground v.1.15,2013-01-31 02:35:00,
2013-01-30 21:50:00,53.2,51.2,29.34,NNE,13,1.0,1.0,93,0.04,,,1.56,Wunderground v.1.15,2013-01-31 02:50:00,
2013-01-30 21:55:00,53.0,51.0,29.34,NNE,13,0.0,20.0,93,0.04,,,1.56,Wunderground v.1.15,2013-01-31 02:55:00,
2013-01-30 22:00:00,52.9,51.2,29.35,NNE,13,0.0,20.0,94,0.07,,,1.57,Wunderground v.1.15,2013-01-31 03:00:00,
2013-01-30 22:05:00,52.8,51.1,29.35,NNE,13,0.0,20.0,94,0.07,,,1.57,Wunderground v.1.15,2013-01-31 03:05:00,
2013-01-30 22:15:00,52.8,51.1,29.37,NNE,13,0.0,20.0,94,0.04,,,1.58,Wunderground v.1.15,2013-01-31 03:15:00,
2013-01-30 22:20:00,52.7,51.3,29.36,NNE,13,0.0,20.0,95,0.12,,,1.59,Wunderground v.1.15,2013-01-31 03:20:00,
2013-01-30 22:25:00,52.5,50.8,29.36,NNE,13,0.0,20.0,94,0.08,,,1.60,Wunderground v.1.15,2013-01-31 03:25:00,
2013-01-30 22:30:00,52.3,50.6,29.37,NNE,13,0.0,20.0,94,0.08,,,1.60,Wunderground v.1.15,2013-01-31 03:30:00,
2013-01-30 22:35:00,52.1,50.4,29.36,NNE,13,0.0,20.0,94,0.05,,,1.60,Wunderground v.1.15,2013-01-31 03:35:00,
2013-01-30 22:40:00,52.1,50.4,29.35,NNE,13,0.0,20.0,94,0.04,,,1.60,Wunderground v.1.15,2013-01-31 03:40:00,
2013-01-30 22:45:00,51.9,50.2,29.33,NNE,13,0.0,20.0,94,0.00,,,1.60,Wunderground v.1.15,2013-01-31 03:45:00,
2013-01-30 22:50:00,51.8,50.1,29.33,NNE,13,0.0,20.0,94,0.00,,,1.60,Wunderground v.1.15,2013-01-31 03:50:00,
2013-01-30 22:55:00,51.6,49.9,29.34,NNE,13,0.0,20.0,94,0.00,,,1.60,Wunderground v.1.15,2013-01-31 03:55:00,
2013-01-30 23:00:00,51.5,50.1,29.36,NNE,13,0.0,20.0,95,0.00,,,1.60,Wunderground v.1.15,2013-01-31 04:00:00,
2013-01-30 23:05:00,51.6,50.2,29.36,NNW,340,0.0,20.0,95,0.00,,,1.61,Wunderground v.1.15,2013-01-31 04:05:00,
2013-01-30 23:10:00,51.5,50.1,29.36,NNW,340,0.0,20.0,95,0.00,,,1.61,Wunderground v.1.15,2013-01-31 04:10:00,
2013-01-30 23:20:00,51.2,49.8,29.37,NNW,340,0.0,20.0,95,0.00,,,1.62,Wunderground v.1.15,2013-01-31 04:20:00,
2013-01-30 23:25:00,51.0,49.6,29.35,NNW,340,0.0,20.0,95,0.00,,,1.62,Wunderground v.1.15,2013-01-31 04:25:00,
2013-01-30 23:30:00,51.0,49.6,29.37,NW,314,0.0,20.0,95,0.00,,,1.62,Wunderground v.1.15,2013-01-31 04:30:00,
2013-01-30 23:35:00,51.1,49.7,29.36,West,271,0.0,20.0,95,0.00,,,1.62,Wunderground v.1.15,2013-01-31 04:35:00,
2013-01-30 23:40:00,51.0,49.3,29.35,NNW,339,0.0,20.0,94,0.00,,,1.62,Wunderground v.1.15,2013-01-31 04:40:00,
2013-01-30 23:50:00,50.5,48.0,29.35,NNW,336,3.0,20.0,91,0.00,,,1.62,Wunderground v.1.15,2013-01-31 04:50:00,
2013-01-30 23:55:00,50.3,47.8,29.34,NW,325,5.0,20.0,91,0.00,,,1.62,Wunderground v.1.15,2013-01-31 04:55:00,